Malden, MA

4:24 PM EST on December 28, 2014 (GMT -0500)
Beverly Municipal | Change Station
CLOSE
Current Station
Airport
Location: Beverly,
Elevation: 108 ft
Nearby Weather Stations

Elev 108 ft 42.58 °N, 70.92 °W | Updated 31 minutes ago

Overcast
Overcast
49 °F
Feels Like 49 °F
N
10
Wind Variable Wind from West

Today
High -- | Low -- °F
--% Chance of Precip.
Yesterday
High -- | Low -- °F
Precip. -- in
7:13 AM 4:18 PM
Waxing Crescent, 51% visible
Pressure 29.80 in
Visibility 10.0 miles
Clouds Clear
Dew Point 35 °F
Humidity 59%
Rainfall 0.02 in
Snow Depth Not available.
UV 0 out of 12
Pollen .10 out of 12
Air Quality Not available.
Flu Activity Not available.
METAR KBVY 282053Z 27009KT 10SM CLR 09/02 A2981 RMK AO2 SLP090 T00940017 51024

More Conditions Fewer Conditions

Pressure 29.80 in
Visibility 10.0 miles
Clouds Clear
Dew Point 35 °F
Humidity 59%
Rainfall 0.02 in
Snow Depth Not available.
UV 0 out of 12
Pollen .10 out of 12
Air Quality Not available.
Flu Activity Not available.
METAR KBVY 282053Z 27009KT 10SM CLR 09/02 A2981 RMK AO2 SLP090 T00940017 51024

More Conditions Fewer Conditions

10-Day Weather Forecast

Almanac

Astronomy

Dec. 28, 2014 Rise Set
Actual Time
Civil Twilight
Nautical Twilight
Astronomical Twilight
Moon
Length of Visible Light
Length of Day
Tomorrow will be .
, % of the Moon is Illuminated

Today's Extremes

State Highs State Lows

Community

WunderPhotos

Upload Photos

1,781,431 photos uploaded!

WunderBlogs® & News

Nearby

Air Quality

  Air Quality AQ Index Pollutant
Not available.

Snow Depth

Station Depth Elevation

Earthquake Activity

City Distance Mag. Time & Date
Minimum magnitude displayed is 2.5.

Coastal Water Temperatures

Place Temperature

Nearby Weather Stations